Time;durP1;ratioP1;P1;durP2;ratioP2;P2;SDS_P1;SDS_P2;PMS_P1;PMS_P2;Temp;Humidity;BMP_temperature;BMP_pressure;BME280_temperature;BME280_humidity;BME280_pressure;Samples;Min_cycle;Max_cycle;Signal;HPM_P1;HPM_P2
2022/02/17 00:01:40;;;;;;;0.97;0.83;;;12.60;99.90;;;;;;5081936;28;20722;-41
2022/02/17 00:04:05;;;;;;;2.10;0.60;;;12.70;99.90;;;;;;5086513;28;20427;-38
2022/02/17 00:06:31;;;;;;;1.40;0.73;;;12.70;99.90;;;;;;5089950;28;20807;-39
2022/02/17 00:08:57;;;;;;;2.60;1.00;;;12.70;99.90;;;;;;5089622;28;20679;-38
2022/02/17 00:11:22;;;;;;;1.60;1.10;;;12.70;99.90;;;;;;5089545;28;20188;-39
2022/02/17 00:13:48;;;;;;;1.83;1.00;;;12.60;99.90;;;;;;5086857;28;20220;-38
2022/02/17 00:16:14;;;;;;;1.43;1.20;;;12.60;99.90;;;;;;5086556;28;20200;-39
2022/02/17 00:18:39;;;;;;;1.43;1.00;;;12.70;99.90;;;;;;5081126;28;20193;-39
2022/02/17 00:21:05;;;;;;;2.43;0.90;;;12.50;99.90;;;;;;5089170;28;20304;-39
2022/02/17 00:23:31;;;;;;;4.43;1.13;;;12.60;99.90;;;;;;5089364;28;20191;-38
2022/02/17 00:25:56;;;;;;;1.93;1.30;;;12.50;99.90;;;;;;5089749;28;20495;-38
2022/02/17 00:28:22;;;;;;;4.43;1.70;;;12.40;99.90;;;;;;5089754;28;20185;-38
2022/02/17 00:30:48;;;;;;;5.23;1.37;;;12.30;99.90;;;;;;5089358;28;20181;-39
2022/02/17 00:33:13;;;;;;;1.90;1.27;;;12.30;99.90;;;;;;5079699;28;20429;-42
2022/02/17 00:35:39;;;;;;;2.83;1.27;;;12.30;99.90;;;;;;5089872;28;20192;-38
2022/02/17 00:38:05;;;;;;;1.57;1.30;;;12.30;99.90;;;;;;5088171;28;20196;-39
2022/02/17 00:40:31;;;;;;;3.20;1.40;;;12.20;99.90;;;;;;5088594;28;20450;-38
2022/02/17 00:42:57;;;;;;;3.07;1.00;;;12.10;99.90;;;;;;5089640;28;20196;-38
2022/02/17 00:45:23;;;;;;;5.10;1.27;;;12.20;99.90;;;;;;5089436;28;20658;-38
2022/02/17 00:47:50;;;;;;;2.53;1.20;;;12.10;99.90;;;;;;5079338;28;20647;-38
2022/02/17 00:50:16;;;;;;;5.03;0.80;;;12.10;99.90;;;;;;5087277;28;20928;-38
2022/02/17 00:52:41;;;;;;;1.83;0.97;;;12.10;99.90;;;;;;5088987;28;20422;-40
2022/02/17 00:55:08;;;;;;;3.10;0.80;;;11.80;99.90;;;;;;5089187;28;20434;-38
2022/02/17 00:57:33;;;;;;;2.27;1.03;;;11.90;99.90;;;;;;5089331;28;20191;-39
2022/02/17 01:00:00;;;;;;;3.03;1.17;;;11.90;99.90;;;;;;5088820;28;20896;-40
2022/02/17 01:02:26;;;;;;;2.03;1.57;;;11.90;99.90;;;;;;5080583;28;20212;-38
2022/02/17 01:04:51;;;;;;;3.20;1.40;;;11.90;99.90;;;;;;5081864;28;20415;-39
2022/02/17 01:07:17;;;;;;;3.40;1.60;;;11.90;99.90;;;;;;5088744;28;20185;-38
2022/02/17 01:09:43;;;;;;;4.23;1.60;;;11.90;99.90;;;;;;5088926;28;20709;-39
2022/02/17 01:12:09;;;;;;;2.70;1.40;;;11.90;99.90;;;;;;5088728;28;20192;-38
2022/02/17 01:14:35;;;;;;;1.47;1.20;;;11.90;99.90;;;;;;5088891;28;20453;-38
2022/02/17 01:17:00;;;;;;;1.50;1.07;;;11.80;99.90;;;;;;5082256;28;20474;-39
2022/02/17 01:19:26;;;;;;;1.80;1.10;;;11.70;99.90;;;;;;5078067;28;20196;-39
2022/02/17 01:21:52;;;;;;;1.27;0.90;;;11.70;99.90;;;;;;5087581;28;20477;-38
2022/02/17 01:24:18;;;;;;;1.40;1.20;;;11.90;99.90;;;;;;5088934;28;20639;-38
2022/02/17 01:26:44;;;;;;;2.53;1.70;;;11.70;99.90;;;;;;5088695;28;20421;-39
2022/02/17 01:29:10;;;;;;;3.43;2.37;;;11.80;99.90;;;;;;5088845;28;21005;-38
2022/02/17 01:31:35;;;;;;;3.60;2.77;;;11.60;99.90;;;;;;5086685;28;20192;-38
2022/02/17 01:34:01;;;;;;;4.63;2.47;;;11.70;99.90;;;;;;5078433;28;20188;-39
2022/02/17 01:36:27;;;;;;;2.23;1.80;;;11.60;99.90;;;;;;5087994;28;20311;-39
2022/02/17 01:38:53;;;;;;;6.20;2.60;;;11.70;99.90;;;;;;5088713;28;20631;-38
2022/02/17 01:41:18;;;;;;;2.50;1.57;;;11.80;99.90;;;;;;5087840;28;20294;-38
2022/02/17 01:43:48;;;;;;;1.97;1.70;;;11.60;99.90;;;;;;5088450;28;20184;-38
2022/02/17 01:46:14;;;;;;;6.30;2.00;;;11.50;99.90;;;;;;5088458;28;20181;-38
2022/02/17 01:48:40;;;;;;;3.67;1.57;;;11.50;99.90;;;;;;5075685;28;20430;-39
2022/02/17 01:51:06;;;;;;;7.90;2.00;;;11.50;99.90;;;;;;5085916;28;20535;-38
2022/02/17 01:53:32;;;;;;;4.83;2.30;;;11.50;99.90;;;;;;5079464;28;20189;-38
2022/02/17 01:55:59;;;;;;;5.10;2.53;;;11.70;99.90;;;;;;5083536;28;20204;-39
2022/02/17 01:58:26;;;;;;;8.00;2.50;;;11.60;99.90;;;;;;5087950;28;20425;-39
2022/02/17 02:00:52;;;;;;;4.27;2.40;;;11.50;99.90;;;;;;5087241;28;20720;-39
2022/02/17 02:03:18;;;;;;;4.40;2.80;;;11.70;99.90;;;;;;5079572;28;20439;-38
2022/02/17 02:05:44;;;;;;;6.50;3.00;;;11.40;99.90;;;;;;5087569;28;20655;-38
2022/02/17 02:08:11;;;;;;;4.27;2.33;;;11.40;99.90;;;;;;5087940;28;20835;-39
2022/02/17 02:10:37;;;;;;;5.53;3.67;;;11.40;99.90;;;;;;5087340;28;20537;-41
2022/02/17 02:13:03;;;;;;;3.17;2.43;;;11.50;99.90;;;;;;5087834;28;20454;-38
2022/02/17 02:15:50;;;;;;;7.07;2.40;;;11.50;99.90;;;;;;5087828;28;20863;-38
2022/02/17 02:18:16;;;;;;;9.00;2.73;;;11.40;99.90;;;;;;5072962;28;20861;-38
2022/02/17 02:20:46;;;;;;;5.20;2.30;;;11.40;99.90;;;;;;5086131;28;20442;-37
2022/02/17 02:23:12;;;;;;;6.03;2.80;;;11.40;99.90;;;;;;5088434;28;20483;-38
2022/02/17 02:25:42;;;;;;;5.63;2.60;;;11.40;99.90;;;;;;5087708;28;20927;-38
2022/02/17 02:28:08;;;;;;;7.33;2.23;;;11.50;99.90;;;;;;5087925;28;20788;-39
2022/02/17 02:30:34;;;;;;;6.40;1.80;;;11.30;99.90;;;;;;5086647;28;20422;-41
2022/02/17 02:32:59;;;;;;;8.67;1.80;;;11.30;99.90;;;;;;5080194;28;20200;-40
2022/02/17 02:35:25;;;;;;;4.57;1.90;;;11.30;99.90;;;;;;5085273;28;20537;-40
2022/02/17 02:37:51;;;;;;;8.13;2.70;;;11.30;99.90;;;;;;5087981;28;20188;-40
2022/02/17 02:40:16;;;;;;;7.67;3.17;;;11.30;99.90;;;;;;5086644;28;20337;-41
2022/02/17 02:42:45;;;;;;;6.00;2.60;;;11.40;99.90;;;;;;5087424;28;20303;-41
2022/02/17 02:45:10;;;;;;;4.83;2.23;;;11.30;99.90;;;;;;5087131;28;20277;-41
2022/02/17 02:47:36;;;;;;;5.57;2.17;;;11.20;99.90;;;;;;5082626;28;20496;-40
2022/02/17 02:50:02;;;;;;;8.97;2.70;;;11.30;99.90;;;;;;5080972;28;20191;-43
2022/02/17 02:52:30;;;;;;;8.07;2.93;;;11.20;99.90;;;;;;5087351;28;20184;-40
2022/02/17 02:54:55;;;;;;;5.40;2.90;;;11.30;99.90;;;;;;5072507;28;20453;-39
2022/02/17 02:57:21;;;;;;;7.80;2.53;;;11.40;99.90;;;;;;5086237;28;20787;-41
2022/02/17 02:59:47;;;;;;;6.63;3.00;;;11.30;99.90;;;;;;5085608;28;20226;-41
2022/02/17 03:02:12;;;;;;;6.10;2.50;;;11.50;99.90;;;;;;5090303;28;20216;-43
2022/02/17 03:04:38;;;;;;;6.90;2.60;;;11.30;99.90;;;;;;5083110;28;20169;-39
2022/02/17 03:07:04;;;;;;;6.63;2.37;;;11.20;99.90;;;;;;5091191;28;20318;-39
2022/02/17 03:09:29;;;;;;;11.10;2.47;;;11.20;99.90;;;;;;5091568;28;20215;-40
2022/02/17 03:11:55;;;;;;;7.03;3.20;;;11.20;99.90;;;;;;5090644;28;20192;-39
2022/02/17 03:14:20;;;;;;;8.30;2.23;;;11.20;99.90;;;;;;5091120;28;20199;-40
2022/02/17 03:16:46;;;;;;;8.77;2.47;;;11.10;99.90;;;;;;5091828;28;20192;-40
2022/02/17 03:19:13;;;;;;;11.90;2.53;;;11.10;99.90;;;;;;5077293;28;20184;-40
2022/02/17 03:21:40;;;;;;;4.70;1.90;;;11.00;99.90;;;;;;5089993;28;20254;-40
2022/02/17 03:24:05;;;;;;;9.90;2.80;;;11.00;99.90;;;;;;5091242;28;20422;-40
2022/02/17 03:26:31;;;;;;;7.63;2.23;;;11.00;99.90;;;;;;5090920;28;20824;-41
2022/02/17 03:28:57;;;;;;;5.37;2.30;;;11.00;99.90;;;;;;5090990;28;20612;-39
2022/02/17 03:31:23;;;;;;;10.13;2.87;;;11.00;99.90;;;;;;5090309;28;20275;-40
2022/02/17 03:33:48;;;;;;;7.73;3.00;;;10.80;99.90;;;;;;5081757;28;20661;-38
2022/02/17 03:36:14;;;;;;;9.60;2.80;;;10.80;99.90;;;;;;5086699;28;20196;-38
2022/02/17 03:38:39;;;;;;;10.10;2.93;;;10.80;99.90;;;;;;5090518;28;20204;-40
2022/02/17 03:41:05;;;;;;;8.23;2.43;;;11.00;99.90;;;;;;5089934;28;20281;-42
2022/02/17 03:43:31;;;;;;;6.60;2.77;;;10.90;99.90;;;;;;5090142;28;20223;-40
2022/02/17 03:45:56;;;;;;;9.17;2.30;;;10.80;99.90;;;;;;5090678;28;20550;-40
2022/02/17 03:48:22;;;;;;;7.33;2.57;;;10.90;99.90;;;;;;5084172;28;20182;-41
2022/02/17 03:50:48;;;;;;;11.83;2.93;;;10.70;99.90;;;;;;5082650;28;20204;-39
2022/02/17 03:53:13;;;;;;;9.47;2.93;;;10.80;99.90;;;;;;5090425;28;20195;-39
2022/02/17 03:55:39;;;;;;;12.53;2.90;;;10.90;99.90;;;;;;5090633;28;20291;-39
2022/02/17 03:58:05;;;;;;;12.70;3.47;;;11.00;99.90;;;;;;5090157;28;20189;-39
2022/02/17 04:00:30;;;;;;;8.90;2.77;;;10.70;99.90;;;;;;5089737;28;20245;-39
2022/02/17 04:02:56;;;;;;;15.77;3.47;;;10.80;99.90;;;;;;5087227;28;20172;-39
2022/02/17 04:05:22;;;;;;;9.13;3.27;;;10.70;99.90;;;;;;5086479;28;20185;-41
2022/02/17 04:07:47;;;;;;;12.97;2.43;;;10.70;99.90;;;;;;5089136;28;20181;-39
2022/02/17 04:10:13;;;;;;;15.80;3.23;;;10.70;99.90;;;;;;5089716;28;20185;-39
2022/02/17 04:12:39;;;;;;;9.30;2.53;;;10.70;99.90;;;;;;5089885;28;20219;-39
2022/02/17 04:15:05;;;;;;;13.17;2.93;;;10.70;99.90;;;;;;5090085;28;20184;-39
2022/02/17 04:17:31;;;;;;;7.57;2.10;;;10.80;99.90;;;;;;5090333;28;20180;-42
2022/02/17 04:19:56;;;;;;;7.67;2.50;;;10.90;99.90;;;;;;5077904;28;20426;-39
2022/02/17 04:22:22;;;;;;;10.53;3.10;;;10.70;99.90;;;;;;5089175;28;20215;-38
2022/02/17 04:24:48;;;;;;;10.03;2.40;;;10.70;99.90;;;;;;5089920;28;20680;-39
2022/02/17 04:27:13;;;;;;;7.93;2.00;;;10.40;99.90;;;;;;5088560;28;20690;-39
2022/02/17 04:29:39;;;;;;;9.73;2.50;;;10.50;99.90;;;;;;5089725;28;20183;-39
2022/02/17 04:32:05;;;;;;;11.30;2.90;;;10.50;99.90;;;;;;5089895;28;20663;-38
2022/02/17 04:34:30;;;;;;;6.77;2.53;;;10.50;99.90;;;;;;5078830;28;20237;-39
2022/02/17 04:36:56;;;;;;;12.83;3.00;;;10.40;99.90;;;;;;5089964;28;20760;-39
2022/02/17 04:39:22;;;;;;;9.10;2.63;;;10.50;99.90;;;;;;5089597;28;20567;-39
2022/02/17 04:44:31;;;;;;;9.20;3.00;;;10.40;99.90;;;;;;5089751;28;20248;-39
2022/02/17 04:46:57;;;;;;;9.80;3.60;;;10.50;99.90;;;;;;5089743;28;20517;-39
2022/02/17 04:49:23;;;;;;;13.03;3.33;;;10.40;99.90;;;;;;5080226;28;20229;-40
2022/02/17 04:51:48;;;;;;;15.47;2.70;;;10.40;99.90;;;;;;5088690;28;20275;-39
2022/02/17 04:54:14;;;;;;;21.60;4.07;;;10.50;99.90;;;;;;5089592;28;20267;-39
2022/02/17 04:56:40;;;;;;;9.17;2.93;;;10.60;99.90;;;;;;5088862;28;20208;-39
2022/02/17 04:59:05;;;;;;;11.23;3.10;;;10.40;99.90;;;;;;5089452;28;20188;-39
2022/02/17 05:01:31;;;;;;;17.57;4.40;;;10.20;99.90;;;;;;5088597;28;20261;-39
2022/02/17 05:03:57;;;;;;;9.17;3.00;;;10.30;99.90;;;;;;5082287;28;20681;-40
2022/02/17 05:06:23;;;;;;;6.70;2.60;;;10.20;99.90;;;;;;5088416;28;20194;-39
2022/02/17 05:08:48;;;;;;;11.60;2.93;;;10.30;99.90;;;;;;5089070;28;20188;-39
2022/02/17 05:11:14;;;;;;;10.13;3.50;;;10.30;99.90;;;;;;5088145;28;20414;-39
2022/02/17 05:13:40;;;;;;;11.80;3.00;;;10.30;99.90;;;;;;5089092;28;20275;-39
2022/02/17 05:16:05;;;;;;;10.60;2.73;;;10.20;99.90;;;;;;5088849;28;20187;-39
2022/02/17 05:18:31;;;;;;;14.93;2.53;;;10.40;99.90;;;;;;5084740;28;20237;-39
2022/02/17 05:20:57;;;;;;;18.57;4.47;;;10.30;99.90;;;;;;5076946;28;20208;-39
2022/02/17 05:23:23;;;;;;;13.10;3.77;;;10.30;99.90;;;;;;5088153;28;20631;-41
2022/02/17 05:25:49;;;;;;;12.83;3.03;;;10.30;99.90;;;;;;5075138;28;20172;-39
2022/02/17 05:28:16;;;;;;;11.73;2.83;;;10.50;99.90;;;;;;5087460;28;20483;-40
2022/02/17 05:30:43;;;;;;;10.00;3.50;;;10.30;99.90;;;;;;5074450;28;20432;-40
2022/02/17 05:33:11;;;;;;;15.30;3.23;;;10.30;99.90;;;;;;5088261;28;21016;-40
2022/02/17 05:35:37;;;;;;;10.90;3.43;;;10.30;99.90;;;;;;5077188;28;20442;-39
2022/02/17 05:38:03;;;;;;;12.20;4.37;;;10.40;99.90;;;;;;5087901;28;20506;-39
2022/02/17 05:40:29;;;;;;;13.73;3.80;;;10.30;99.90;;;;;;5088063;28;20845;-39
2022/02/17 05:42:54;;;;;;;13.23;3.37;;;10.50;99.90;;;;;;5088202;28;20793;-39
2022/02/17 05:45:20;;;;;;;15.23;3.10;;;10.30;99.90;;;;;;5082784;28;20192;-39
2022/02/17 05:47:46;;;;;;;14.00;4.13;;;10.30;99.90;;;;;;5080975;28;20727;-39
2022/02/17 05:50:11;;;;;;;13.30;3.23;;;10.20;99.90;;;;;;5079450;28;20199;-39
2022/02/17 05:52:37;;;;;;;12.90;3.83;;;10.40;99.90;;;;;;5087196;28;20188;-39
2022/02/17 05:55:04;;;;;;;13.07;3.50;;;10.30;99.90;;;;;;5088072;28;20820;-38
2022/02/17 05:57:30;;;;;;;16.87;3.23;;;10.20;99.90;;;;;;5088293;28;20202;-39
2022/02/17 05:59:56;;;;;;;13.23;3.27;;;10.50;99.90;;;;;;5087365;28;20422;-39
2022/02/17 06:02:21;;;;;;;10.50;3.37;;;10.30;99.90;;;;;;5088085;28;20220;-41
2022/02/17 06:04:47;;;;;;;18.30;5.30;;;10.40;99.90;;;;;;5080816;28;20586;-41
2022/02/17 06:07:13;;;;;;;10.10;3.40;;;10.20;99.90;;;;;;5083638;28;20661;-41
2022/02/17 06:09:43;;;;;;;12.07;3.73;;;10.50;99.90;;;;;;5086809;28;20192;-40
2022/02/17 06:12:09;;;;;;;11.67;3.50;;;10.20;99.90;;;;;;5087237;28;20487;-43
2022/02/17 06:14:35;;;;;;;14.17;3.30;;;10.30;99.90;;;;;;5087835;28;20414;-44
2022/02/17 06:17:01;;;;;;;18.97;4.10;;;10.20;99.90;;;;;;5087776;28;20418;-42
2022/02/17 06:19:27;;;;;;;14.60;4.40;;;10.20;99.90;;;;;;5081620;28;20483;-42
2022/02/17 06:21:52;;;;;;;12.50;4.00;;;10.20;99.90;;;;;;5079587;28;20557;-42
2022/02/17 06:24:18;;;;;;;15.37;3.73;;;10.30;99.90;;;;;;5084697;28;20184;-43
2022/02/17 06:26:44;;;;;;;16.83;4.20;;;10.20;99.90;;;;;;5087370;28;20199;-42
2022/02/17 06:29:09;;;;;;;13.00;3.50;;;10.40;99.90;;;;;;5069410;28;20233;-41
2022/02/17 06:31:35;;;;;;;9.97;2.90;;;10.20;99.90;;;;;;5086812;28;20185;-42
2022/02/17 06:34:01;;;;;;;9.13;3.00;;;10.20;99.90;;;;;;5084687;28;20184;-41
2022/02/17 06:36:26;;;;;;;11.67;3.60;;;10.20;99.90;;;;;;5080737;28;20188;-40
2022/02/17 06:38:52;;;;;;;14.13;3.67;;;10.30;99.90;;;;;;5087723;28;20304;-40
2022/02/17 06:41:21;;;;;;;13.23;3.87;;;10.10;99.90;;;;;;5085670;28;20211;-42
2022/02/17 06:43:47;;;;;;;14.47;3.83;;;10.20;99.90;;;;;;5087667;28;20567;-45
2022/02/17 06:46:13;;;;;;;21.13;5.93;;;10.30;99.90;;;;;;5082912;28;20529;-44
2022/02/17 06:48:39;;;;;;;12.57;3.53;;;10.10;99.90;;;;;;5087341;28;20923;-42
2022/02/17 06:51:05;;;;;;;14.60;4.20;;;10.10;99.90;;;;;;5075049;28;20521;-40
2022/02/17 06:53:30;;;;;;;12.37;3.17;;;10.10;99.90;;;;;;5082404;28;20552;-40
2022/02/17 06:55:56;;;;;;;9.50;2.70;;;10.30;99.90;;;;;;5076805;28;20684;-42
2022/02/17 06:58:21;;;;;;;13.97;3.53;;;10.20;99.90;;;;;;5076507;28;20195;-43
2022/02/17 07:00:47;;;;;;;15.23;3.07;;;10.10;99.90;;;;;;5087073;28;20335;-44
2022/02/17 07:03:13;;;;;;;13.90;3.87;;;10.20;99.90;;;;;;5087441;28;20192;-43
2022/02/17 07:05:41;;;;;;;15.23;3.60;;;10.10;99.90;;;;;;5079257;28;20292;-43
2022/02/17 07:08:07;;;;;;;10.90;2.80;;;10.10;99.90;;;;;;5086250;28;20529;-43
2022/02/17 07:13:17;;;;;;;5.90;2.33;;;9.90;99.90;;;;;;5084304;28;20461;-44
2022/02/17 07:15:44;;;;;;;15.17;3.00;;;9.50;99.90;;;;;;5086367;28;20969;-42
2022/02/17 07:18:10;;;;;;;10.07;2.50;;;9.10;99.90;;;;;;5086224;28;20554;-43
2022/02/17 07:20:37;;;;;;;9.17;3.07;;;9.10;99.90;;;;;;5080675;28;20439;-42
2022/02/17 07:23:03;;;;;;;7.37;3.10;;;8.80;99.90;;;;;;5086345;28;20184;-43
2022/02/17 07:25:29;;;;;;;8.07;2.37;;;8.70;99.90;;;;;;5086959;28;20422;-40
2022/02/17 07:27:55;;;;;;;9.53;2.73;;;8.60;99.90;;;;;;5086952;28;20185;-42
2022/02/17 07:30:21;;;;;;;3.80;1.70;;;8.90;99.90;;;;;;5086265;28;20242;-41
2022/02/17 07:32:47;;;;;;;4.67;2.40;;;8.70;99.90;;;;;;5086566;28;20560;-41
2022/02/17 07:35:13;;;;;;;6.07;1.87;;;8.60;99.90;;;;;;5080544;28;20517;-41
2022/02/17 07:37:39;;;;;;;7.73;1.70;;;8.90;99.90;;;;;;5086354;28;20250;-40
2022/02/17 07:40:09;;;;;;;6.30;1.80;;;8.60;99.90;;;;;;5086239;28;20426;-40
2022/02/17 07:42:35;;;;;;;4.53;1.53;;;8.50;99.90;;;;;;5086626;28;20465;-41
2022/02/17 07:45:02;;;;;;;7.10;2.07;;;8.60;99.90;;;;;;5086750;28;20440;-40
2022/02/17 07:47:28;;;;;;;6.83;2.10;;;8.70;99.90;;;;;;5088874;28;20220;-40
2022/02/17 07:49:54;;;;;;;7.63;2.80;;;8.90;99.90;;;;;;5083583;28;20447;-40
2022/02/17 07:52:21;;;;;;;6.67;2.77;;;8.70;99.90;;;;;;5082494;28;20418;-40
2022/02/17 07:54:46;;;;;;;10.27;2.50;;;8.90;99.90;;;;;;5089949;28;20570;-42
2022/02/17 07:57:12;;;;;;;12.40;2.77;;;8.70;99.90;;;;;;5089930;28;20947;-41
2022/02/17 07:59:38;;;;;;;12.00;2.97;;;8.90;99.90;;;;;;5089338;28;20199;-40
2022/02/17 08:02:04;;;;;;;8.40;2.77;;;9.30;99.90;;;;;;5089679;28;20632;-42
2022/02/17 08:04:30;;;;;;;6.93;2.70;;;9.30;99.90;;;;;;5089200;28;20730;-41
2022/02/17 08:06:56;;;;;;;9.30;2.43;;;9.50;99.90;;;;;;5076968;28;20173;-45
2022/02/17 08:09:22;;;;;;;10.20;3.10;;;9.60;99.90;;;;;;5088550;28;20505;-40
2022/02/17 08:11:48;;;;;;;7.10;2.47;;;9.90;99.90;;;;;;5089479;28;20869;-42
2022/02/17 08:14:14;;;;;;;9.53;2.40;;;10.00;99.90;;;;;;5089665;28;20466;-43
2022/02/17 08:16:40;;;;;;;8.87;2.27;;;10.10;99.90;;;;;;5088409;28;20457;-42
2022/02/17 08:19:07;;;;;;;11.30;2.63;;;10.00;99.90;;;;;;5090319;28;20318;-40
2022/02/17 08:21:33;;;;;;;9.37;2.83;;;10.00;99.90;;;;;;5077548;28;20221;-42
2022/02/17 08:23:59;;;;;;;6.60;2.10;;;10.10;99.90;;;;;;5089593;28;20961;-41
2022/02/17 08:26:25;;;;;;;8.20;2.00;;;10.10;99.90;;;;;;5089603;28;20422;-42
2022/02/17 08:28:57;;;;;;;11.50;2.40;;;10.20;99.90;;;;;;5090132;28;20755;-40
2022/02/17 08:31:23;;;;;;;7.10;2.30;;;9.80;99.90;;;;;;5088877;28;20756;-41
2022/02/17 08:33:49;;;;;;;11.23;2.37;;;9.50;99.90;;;;;;5089639;28;20437;-42
2022/02/17 08:36:15;;;;;;;5.97;2.80;;;9.10;99.90;;;;;;5079223;28;20431;-41
2022/02/17 08:38:41;;;;;;;5.13;2.17;;;8.80;99.90;;;;;;5089279;28;20184;-42
2022/02/17 08:41:09;;;;;;;7.10;2.53;;;8.80;99.90;;;;;;5089227;28;20472;-41
2022/02/17 08:43:35;;;;;;;8.30;3.10;;;8.40;99.90;;;;;;5089294;28;20886;-41
2022/02/17 08:46:02;;;;;;;4.90;2.50;;;8.40;99.90;;;;;;5089627;28;20446;-40
2022/02/17 08:48:27;;;;;;;9.37;3.10;;;8.20;99.90;;;;;;5089565;28;20176;-44
2022/02/17 08:50:53;;;;;;;10.83;2.40;;;8.20;99.90;;;;;;5082167;28;20438;-41
2022/02/17 08:53:20;;;;;;;9.80;3.27;;;8.40;99.90;;;;;;5088937;28;20180;-43
2022/02/17 08:55:45;;;;;;;9.03;2.23;;;8.20;99.90;;;;;;5089092;28;20203;-40
2022/02/17 08:58:11;;;;;;;8.73;1.93;;;8.40;99.90;;;;;;5087753;28;20422;-40
2022/02/17 09:00:37;;;;;;;9.03;2.47;;;8.50;99.90;;;;;;5088273;28;20509;-43
2022/02/17 09:03:06;;;;;;;11.40;2.50;;;8.30;99.90;;;;;;5087343;28;20443;-42
2022/02/17 09:05:32;;;;;;;10.30;2.70;;;8.70;99.90;;;;;;5087778;28;20844;-45
2022/02/17 09:07:58;;;;;;;11.63;2.77;;;9.00;99.90;;;;;;5086055;28;20442;-42
2022/02/17 09:10:25;;;;;;;8.23;3.90;;;9.30;99.90;;;;;;5087334;28;20427;-43
2022/02/17 09:12:51;;;;;;;7.00;2.07;;;9.50;99.90;;;;;;5088542;28;20430;-41
2022/02/17 09:15:17;;;;;;;8.80;2.00;;;9.80;99.90;;;;;;5088965;28;21012;-44
2022/02/17 09:17:46;;;;;;;7.60;1.97;;;10.10;99.90;;;;;;5088719;28;20200;-41
2022/02/17 09:20:12;;;;;;;8.57;2.20;;;10.50;99.90;;;;;;5086115;28;20431;-40
2022/02/17 09:22:39;;;;;;;7.10;2.00;;;10.60;99.90;;;;;;5081037;28;20497;-40
2022/02/17 09:25:06;;;;;;;3.97;1.67;;;10.20;99.90;;;;;;5088957;28;20418;-41
2022/02/17 09:27:31;;;;;;;9.80;1.73;;;10.20;99.90;;;;;;5088427;28;20422;-41
2022/02/17 09:29:57;;;;;;;6.13;2.00;;;9.90;99.90;;;;;;5086512;28;20421;-43
2022/02/17 09:32:24;;;;;;;8.70;2.20;;;9.90;99.90;;;;;;5088561;28;20184;-40
2022/02/17 09:34:50;;;;;;;5.30;1.87;;;9.60;99.90;;;;;;5088303;28;20438;-42
2022/02/17 09:37:16;;;;;;;8.10;2.13;;;9.50;99.90;;;;;;5077637;28;20441;-43
2022/02/17 09:39:43;;;;;;;3.80;1.80;;;9.50;99.90;;;;;;5082252;28;20430;-40
2022/02/17 09:42:09;;;;;;;8.50;2.03;;;9.80;99.90;;;;;;5088243;28;20458;-41
2022/02/17 09:44:37;;;;;;;5.63;2.00;;;9.90;99.90;;;;;;5088013;28;20442;-41
2022/02/17 09:47:04;;;;;;;8.57;2.67;;;10.00;99.90;;;;;;5087156;28;20191;-43
2022/02/17 09:49:30;;;;;;;13.47;3.00;;;10.00;99.90;;;;;;5088539;28;20521;-42
2022/02/17 09:51:57;;;;;;;6.30;2.80;;;10.10;99.90;;;;;;5080593;28;21035;-41
2022/02/17 09:54:23;;;;;;;9.00;2.53;;;10.10;99.90;;;;;;5088144;28;20419;-41
2022/02/17 09:56:49;;;;;;;9.23;2.43;;;10.40;99.90;;;;;;5088165;28;20438;-41
2022/02/17 09:59:16;;;;;;;7.90;2.43;;;10.70;99.90;;;;;;5087975;28;20418;-41
2022/02/17 10:01:56;;;;;;;10.87;1.83;;;10.80;99.90;;;;;;5087350;28;20987;-41
2022/02/17 10:04:23;;;;;;;6.80;1.57;;;10.90;99.90;;;;;;5086491;28;20936;-42
2022/02/17 10:07:03;;;;;;;5.00;1.43;;;11.10;99.90;;;;;;5078172;28;20480;-44
2022/02/17 10:09:46;;;;;;;5.87;1.97;;;10.60;99.90;;;;;;5084657;28;20680;-41
2022/02/17 10:12:13;;;;;;;7.13;1.40;;;10.20;99.90;;;;;;5088038;28;20448;-45
2022/02/17 10:14:40;;;;;;;9.97;1.90;;;10.10;99.90;;;;;;5087694;28;20418;-47
2022/02/17 10:17:09;;;;;;;4.80;1.77;;;10.30;99.90;;;;;;5087724;28;20769;-40
2022/02/17 10:19:40;;;;;;;5.80;1.80;;;10.50;99.90;;;;;;5087197;28;20492;-46
2022/02/17 10:22:11;;;;;;;5.97;1.50;;;10.20;99.90;;;;;;5075294;28;20475;-45
2022/02/17 10:24:45;;;;;;;7.23;2.20;;;10.40;99.90;;;;;;5087524;28;20806;-41
2022/02/17 10:27:13;;;;;;;7.87;1.83;;;10.00;99.90;;;;;;5087477;28;20509;-43
2022/02/17 10:29:40;;;;;;;2.50;1.43;;;10.00;99.90;;;;;;5087144;28;20434;-41
2022/02/17 10:32:12;;;;;;;7.20;2.10;;;10.10;99.90;;;;;;5087287;28;20418;-40
2022/02/17 10:34:40;;;;;;;5.50;2.10;;;9.90;99.90;;;;;;5087465;28;20422;-42
2022/02/17 10:37:07;;;;;;;6.10;1.80;;;9.90;99.90;;;;;;5073655;28;20430;-45
2022/02/17 10:39:36;;;;;;;7.97;2.00;;;9.90;99.90;;;;;;5086059;28;20422;-41
2022/02/17 10:42:04;;;;;;;7.47;2.10;;;9.80;99.90;;;;;;5087103;28;20497;-44
2022/02/17 10:44:33;;;;;;;5.47;1.37;;;9.80;99.90;;;;;;5087159;28;20517;-40
2022/02/17 10:47:13;;;;;;;4.00;1.60;;;9.80;99.90;;;;;;5087394;28;20430;-43
2022/02/17 10:49:43;;;;;;;7.87;2.10;;;9.60;99.90;;;;;;5086896;28;20968;-43
2022/02/17 10:52:09;;;;;;;6.77;1.80;;;9.90;99.90;;;;;;5076364;28;20627;-42
2022/02/17 10:54:35;;;;;;;7.23;1.90;;;9.90;99.90;;;;;;5086087;28;20457;-40
2022/02/17 10:57:05;;;;;;;8.40;2.37;;;10.00;99.90;;;;;;5086883;28;20655;-42
2022/02/17 11:02:22;;;;;;;7.07;1.40;;;10.30;99.90;;;;;;5087080;28;20462;-43
2022/02/17 11:04:51;;;;;;;4.37;2.00;;;10.60;99.90;;;;;;5087377;28;20832;-44
2022/02/17 11:07:18;;;;;;;3.67;1.90;;;10.60;99.90;;;;;;5075334;28;20515;-44
2022/02/17 11:09:45;;;;;;;5.40;1.67;;;10.60;99.20;;;;;;5086212;28;20450;-41
2022/02/17 11:12:14;;;;;;;8.13;1.60;;;10.80;99.30;;;;;;5087101;28;20501;-44
2022/02/17 11:14:42;;;;;;;7.97;1.57;;;10.90;98.50;;;;;;5087229;28;20587;-42
2022/02/17 11:17:10;;;;;;;4.90;1.50;;;11.10;99.10;;;;;;5087346;28;20491;-45
2022/02/17 11:19:36;;;;;;;4.23;1.57;;;11.10;98.50;;;;;;5086582;28;20418;-41
2022/02/17 11:22:03;;;;;;;2.40;1.20;;;11.20;98.10;;;;;;5080763;28;20496;-42
2022/02/17 11:24:29;;;;;;;3.13;1.40;;;11.20;97.40;;;;;;5089189;28;20426;-43
2022/02/17 11:27:03;;;;;;;3.50;1.33;;;11.10;97.30;;;;;;5090969;28;20808;-44
2022/02/17 11:29:32;;;;;;;7.63;1.37;;;11.00;97.30;;;;;;5090893;28;20263;-44
2022/02/17 11:32:06;;;;;;;3.40;1.10;;;11.10;97.80;;;;;;5090493;28;20430;-42
2022/02/17 11:34:35;;;;;;;2.73;1.27;;;11.10;96.60;;;;;;5090907;28;20963;-42
2022/02/17 11:37:20;;;;;;;5.27;1.53;;;10.70;96.90;;;;;;5084158;28;20773;-44
2022/02/17 11:40:09;;;;;;;6.87;1.33;;;10.70;96.80;;;;;;5085164;28;20445;-44
2022/02/17 11:42:44;;;;;;;4.70;1.63;;;10.60;96.70;;;;;;5090938;28;20462;-41
2022/02/17 11:45:11;;;;;;;5.77;1.40;;;10.60;97.10;;;;;;5090576;28;20432;-40
2022/02/17 11:48:05;;;;;;;7.13;1.37;;;10.60;97.30;;;;;;5090690;28;20503;-41
2022/02/17 11:50:33;;;;;;;5.13;1.70;;;10.60;96.70;;;;;;5089698;28;20415;-42
2022/02/17 11:53:30;;;;;;;3.23;1.37;;;10.60;97.50;;;;;;5081190;28;20858;-41
2022/02/17 11:56:05;;;;;;;7.43;2.03;;;10.70;97.10;;;;;;5084969;28;20537;-44
2022/02/17 11:58:40;;;;;;;4.80;1.33;;;10.40;97.50;;;;;;5090827;28;20461;-43
2022/02/17 12:01:31;;;;;;;3.00;0.80;;;10.40;98.00;;;;;;5089837;28;20869;-40
2022/02/17 12:04:17;;;;;;;4.70;1.10;;;10.20;97.70;;;;;;5090496;28;20450;-41
2022/02/17 12:06:49;;;;;;;7.73;1.93;;;10.10;98.30;;;;;;5084443;28;20517;-44
2022/02/17 12:09:35;;;;;;;3.93;1.30;;;10.20;98.10;;;;;;5085767;28;20459;-43
2022/02/17 12:12:13;;;;;;;4.50;1.67;;;10.10;98.40;;;;;;5084309;28;20853;-46
2022/02/17 12:14:49;;;;;;;7.23;2.10;;;10.20;98.00;;;;;;5090667;28;20422;-41
2022/02/17 12:17:15;;;;;;;7.33;1.40;;;10.00;98.10;;;;;;5090118;28;20428;-44
2022/02/17 12:19:41;;;;;;;3.60;1.40;;;10.00;97.80;;;;;;5090010;28;20783;-44
2022/02/17 12:22:09;;;;;;;1.53;1.00;;;9.80;98.80;;;;;;5084363;28;20466;-43
2022/02/17 12:24:45;;;;;;;5.17;1.73;;;9.80;98.90;;;;;;5088798;28;20188;-40
2022/02/17 12:27:21;;;;;;;4.03;1.57;;;9.90;98.80;;;;;;5089721;28;20530;-42
2022/02/17 12:29:47;;;;;;;6.60;1.40;;;10.30;97.80;;;;;;5089366;28;20418;-43
2022/02/17 12:32:19;;;;;;;7.13;1.70;;;10.30;96.80;;;;;;5089424;28;20842;-44
2022/02/17 12:34:45;;;;;;;3.03;1.63;;;10.60;96.60;;;;;;5089601;28;20472;-41
2022/02/17 12:37:18;;;;;;;8.23;1.60;;;11.10;96.40;;;;;;5081247;28;20435;-41
2022/02/17 12:39:45;;;;;;;3.77;1.30;;;11.20;95.00;;;;;;5084072;28;20421;-41
2022/02/17 12:42:11;;;;;;;5.40;1.90;;;11.50;95.20;;;;;;5089203;28;20805;-46
2022/02/17 12:44:39;;;;;;;3.70;1.20;;;11.70;94.70;;;;;;5089492;28;20422;-44
2022/02/17 12:47:07;;;;;;;2.80;1.30;;;11.90;94.80;;;;;;5089370;28;20859;-44
2022/02/17 12:49:34;;;;;;;6.60;1.70;;;12.10;94.40;;;;;;5087588;28;20467;-44
2022/02/17 12:52:08;;;;;;;2.30;1.37;;;12.10;95.10;;;;;;5082168;28;20442;-44
2022/02/17 12:54:35;;;;;;;5.17;1.57;;;11.90;94.60;;;;;;5086428;28;20418;-41